• Join FlightAware (Why Join?)
  • Login
  • US Flag 
03:09PM EDT


 

Airport Tracker/Info


-or-


 

Live Flight TrackerFlight Track Log ✈ SWA2852 ✈ 23-Apr-2013 ✈ KROC - KMDW

Flight Track Log - Related Links

Times and Time Zones

All times are in EDT time to prevent confusion due to time zone crossing. See the SWA2852 flight status page for this flight to view local times or setup timezone preferences in your user account.

Time Position Orientation Groundspeed Altitude Reporting Facility
EDT Latitude Longitude Course Direction KTS MPH feet Rate Location/Type
05:06PM 43.0975 -77.6972 282° West 179 206 1,800  Level Cleveland Center
05:08PM 43.1122 -77.7961 282° West 240 276 6,600 3,120 Climbing Cleveland Center
05:09PM 43.1397 -77.8917 292° West 247 284 9,900 2,520 Climbing Cleveland Center
05:10PM 43.1528 -78.0133 278° West 283 326 11,700 2,760 Climbing Cleveland Center
05:11PM 43.1578 -78.1414 273° West 324 373 15,500 3,480 Climbing Cleveland Center
05:12PM 43.0931 -78.2406 228° Southwest 323 372 18,700 2,700 Climbing Cleveland Center
05:13PM 43.0142 -78.3600 228° Southwest 361 415 21,000 1,140 Climbing Cleveland Center
05:14PM 42.9453 -78.4644 228° Southwest 380 437 21,000  Level Cleveland Center
05:15PM 42.8761 -78.5689 228° Southwest 385 443 21,000 60 Level Cleveland Center
05:16PM 42.8072 -78.6786 229° Southwest 385 443 21,200 1,260 Climbing Cleveland Center
05:17PM 42.7361 -78.7883 229° Southwest 385 443 23,600 2,640 Climbing Cleveland Center
05:18PM 42.6900 -78.9222 245° Southwest 385 443 26,500 1,680 Climbing Cleveland Center
05:19PM 42.6397 -79.0506 242° Southwest 390 449 27,000 660 Climbing Cleveland Center
05:20PM 42.5808 -79.1706 236° Southwest 390 449 27,900 960 Climbing Cleveland Center
05:21PM 42.4967 -79.2736 222° Southwest 395 455 29,000 540 Climbing Cleveland Center
05:22PM 42.4144 -79.3794 224° Southwest 407 468 29,000 840 Level Cleveland Center
05:23PM 42.3531 -79.4958 235° Southwest 401 461 30,700 2,220 Climbing Cleveland Center
05:24PM 42.3083 -79.6342 246° West 396 456 33,500 2,700 Climbing Cleveland Center
05:25PM 42.2656 -79.7500 244° Southwest 372 428 36,100 1,800 Climbing Cleveland Center
05:26PM 42.2244 -79.8597 243° Southwest 366 421 37,200 1,200 Climbing Cleveland Center
05:27PM 42.1772 -79.9919 244° Southwest 361 415 38,500 900 Climbing Cleveland Center
05:28PM 42.1342 -80.1156 245° Southwest 369 425 39,100 600 Climbing Cleveland Center
05:29PM 42.0844 -80.2419 242° Southwest 374 430 39,800 420 Climbing Cleveland Center
05:30PM 42.0389 -80.3706 245° Southwest 384 442 40,000 -240 Climbing Cleveland Center
05:31PM 41.9975 -80.4853 244° Southwest 384 442 39,400 -1,380 Descending Cleveland Center
05:32PM 41.9517 -80.6083 243° Southwest 384 442 37,300 -2,760 Descending Cleveland Center
05:33PM 41.9056 -80.7311 243° Southwest 375 432 33,900 -3,480 Descending Cleveland Center
05:34PM 41.8575 -80.8564 243° Southwest 375 432 30,400 -1,980 Descending Cleveland Center
05:35PM 41.8092 -80.9900 244° Southwest 392 451 30,000 -240 Descending Cleveland Center
05:36PM 41.7586 -81.1203 243° Southwest 392 451 30,000  Level Cleveland Center
05:37PM 41.7100 -81.2478 243° Southwest 392 451 30,000  Level Cleveland Center
05:38PM 41.6589 -81.3919 245° Southwest 386 444 30,000  Level Cleveland Center
05:39PM 41.6497 -81.5308 265° West 381 438 30,000  Level Cleveland Center
05:40PM 41.6464 -81.6725 268° West 381 438 30,000  Level Cleveland Center
05:41PM 41.6428 -81.8142 268° West 386 444 30,000  Level Cleveland Center
05:42PM 41.6328 -81.9556 265° West 381 438 30,000  Level Cleveland Center
05:43PM 41.6269 -82.0969 267° West 381 438 30,000  Level Cleveland Center
05:44PM 41.6208 -82.2386 267° West 386 444 30,000  Level Cleveland Center
05:45PM 41.6122 -82.3800 265° West 386 444 30,000  Level Cleveland Center
05:46PM 41.6058 -82.5242 267° West 386 444 30,000  Level Cleveland Center
05:47PM 41.5992 -82.6656 266° West 386 444 30,000  Level Cleveland Center
05:48PM 41.5903 -82.8097 265° West 386 444 30,000  Level Cleveland Center
05:49PM 41.5853 -82.9539 267° West 386 444 30,000  Level Cleveland Center
05:50PM 41.5761 -83.0925 265° West 386 444 30,000  Level Cleveland Center
05:51PM 41.5667 -83.2336 265° West 386 444 30,000  Level Cleveland Center
05:52PM 41.5611 -83.3750 267° West 386 444 30,000  Level Cleveland Center
05:53PM 41.5514 -83.5161 265° West 386 444 30,000  Level Cleveland Center
05:54PM 41.5414 -83.6572 265° West 386 444 30,000  Level Cleveland Center
05:55PM 41.5333 -83.7956 266° West 386 444 30,000  Level Cleveland Center
05:57PM 41.5219 -84.0311 266° West 377 434 30,000  Level Chicago Center
05:58PM 41.5097 -84.2014 265° West 384 442 30,000  Level Chicago Center
05:59PM 41.5017 -84.3469 266° West 393 452 30,000  Level Chicago Center
06:00PM 41.4911 -84.4894 264° West 390 449 30,000  Level Chicago Center
06:01PM 41.4811 -84.6336 265° West 390 449 30,000  Level Chicago Center
06:02PM 41.4850 -84.7753 272° West 386 444 30,000 -240 Level Chicago Center
06:03PM 41.4911 -84.9183 273° West 386 444 29,600 -840 Descending Chicago Center
06:04PM 41.4964 -85.0822 273° West 370 426 28,300 -1,140 Descending Chicago Center
06:05PM 41.5008 -85.2158 273° West 362 417 27,300 -1,140 Descending Chicago Center
06:06PM 41.5050 -85.3483 272° West 355 409 26,000 -1,440 Descending Chicago Center
06:07PM 41.5089 -85.4778 272° West 344 396 24,400 -1,260 Descending Chicago Center
06:08PM 41.5122 -85.6036 272° West 334 384 23,400 -960 Descending Chicago Center
06:09PM 41.5161 -85.7253 272° West 327 376 22,400 -1,200 Descending Chicago Center
06:10PM 41.5197 -85.8447 272° West 322 371 20,900 -1,800 Descending Chicago Center
06:11PM 41.5222 -85.9597 272° West 311 358 18,800 -2,160 Descending Chicago Center
06:12PM 41.5250 -86.0922 272° West 300 345 16,500 -2,160 Descending Chicago Center
06:13PM 41.5239 -86.2011 269° West 296 341 14,400 -2,040 Descending Chicago Center
06:14PM 41.5225 -86.3122 269° West 299 344 12,400 -1,680 Descending Chicago Center
06:15PM 41.5219 -86.4219 270° West 295 339 11,000 -1,200 Descending Chicago Center
06:16PM 41.5217 -86.5200 270° West 269 310 10,000 -540 Descending Chicago Center
06:18PM 41.5211 -86.6103 270° West 248 285 10,000  Level Chicago Center
06:19PM 41.5203 -86.7175 269° West 242 278 10,000  Level Chicago Center
06:20PM 41.5197 -86.7925 269° West 237 273 10,000  Level Chicago Center
06:21PM 41.5183 -86.8981 269° West 238 274 10,000 -600 Level Chicago Center
06:22PM 41.5178 -86.9833 270° West 233 268 8,800 -1,140 Descending Chicago Center
06:23PM 41.5378 -87.0686 287° West 244 281 7,700 -1,380 Descending Chicago Center
06:23PM 41.5500 -87.1333 284° West 259 298 6,600 -1,080 Descending Chicago TRACON
06:24PM 41.5667 -87.2167 285° West 248 285 6,000 -360 Descending Chicago TRACON
06:25PM 41.6000 -87.3000 298° West 238 274 6,000 -780 Level Chicago TRACON
06:26PM 41.6167 -87.3833 285° West 250 288 4,600 -1,260 Descending Chicago TRACON
06:27PM 41.6269 -87.4322 286° West 243 280 4,000 -360 Descending Chicago Center
06:28PM 41.6486 -87.5200 288° West 246 283 4,000 -180 Level Chicago Center
06:29PM 41.6742 -87.5992 293° West 238 274 3,700 -660 Descending Chicago Center
06:29PM 41.7000 -87.6333 315° West 212 244 3,100 -1,200 Descending Chicago TRACON
06:30PM 41.7333 -87.6667 323° Northwest 156 180 2,100 -900 Descending Chicago TRACON
06:31PM 41.7500 -87.7167 294° West 121 139 1,400 -720 Descending Chicago TRACON